createdAt,value
2023-01-05T00:00:04.536Z,19.88
2023-01-05T00:02:38.978Z,19.87
2023-01-05T00:05:08.314Z,19.86
2023-01-05T00:07:34.633Z,19.86
2023-01-05T00:10:04.186Z,19.85
2023-01-05T00:12:49.344Z,19.85
2023-01-05T00:15:34.396Z,19.85
2023-01-05T00:18:19.336Z,19.84
2023-01-05T00:21:04.247Z,19.84
2023-01-05T00:23:30.581Z,19.83
2023-01-05T00:25:56.898Z,19.83
2023-01-05T00:28:23.214Z,19.83
2023-01-05T00:30:49.531Z,19.82
2023-01-05T00:33:16.277Z,19.82
2023-01-05T00:35:42.633Z,19.81
2023-01-05T00:38:08.967Z,19.81
2023-01-05T00:40:37.705Z,19.81
2023-01-05T00:43:04.085Z,19.80
2023-01-05T00:45:30.512Z,19.80
2023-01-05T00:47:59.562Z,19.79
2023-01-05T00:50:26.074Z,19.79
2023-01-05T00:52:52.410Z,19.79
2023-01-05T00:55:18.802Z,19.79
2023-01-05T00:57:46.235Z,19.78
2023-01-05T01:00:14.506Z,19.78
2023-01-05T01:02:40.894Z,19.78
2023-01-05T01:05:07.383Z,19.79
2023-01-05T01:07:33.700Z,19.78
2023-01-05T01:10:00.055Z,19.78
2023-01-05T01:12:26.406Z,19.77
2023-01-05T01:14:52.753Z,19.78
2023-01-05T01:17:19.116Z,19.78
2023-01-05T01:19:46.785Z,19.77
2023-01-05T01:22:13.432Z,19.77
2023-01-05T01:24:39.772Z,19.77
2023-01-05T01:27:06.118Z,19.78
2023-01-05T01:29:32.723Z,19.77
2023-01-05T01:31:59.698Z,19.75
2023-01-05T01:34:26.047Z,19.76
2023-01-05T01:36:54.378Z,19.75
2023-01-05T01:39:23.461Z,19.75
2023-01-05T01:41:55.160Z,19.75
2023-01-05T01:44:40.304Z,19.75
2023-01-05T01:47:06.857Z,19.73
2023-01-05T01:49:33.303Z,19.74
2023-01-05T01:52:05.276Z,19.74
2023-01-05T01:54:31.627Z,19.73
2023-01-05T01:56:58.140Z,19.73
2023-01-05T01:59:24.490Z,19.72
2023-01-05T02:01:51.388Z,19.72
2023-01-05T02:04:18.733Z,19.72
2023-01-05T02:06:45.096Z,19.71
2023-01-05T02:09:11.442Z,19.72
2023-01-05T02:11:41.099Z,19.71
2023-01-05T02:14:22.269Z,19.70
2023-01-05T02:16:48.562Z,19.69
2023-01-05T02:19:37.192Z,19.69
2023-01-05T02:26:19.866Z,19.69
2023-01-05T02:29:07.624Z,19.68
2023-01-05T02:31:40.668Z,19.67
2023-01-05T02:34:14.604Z,19.67
2023-01-05T02:36:50.458Z,19.67
2023-01-05T02:39:32.700Z,19.67
2023-01-05T02:41:59.892Z,19.67
2023-01-05T02:44:27.765Z,19.66
2023-01-05T02:47:03.166Z,19.65
2023-01-05T02:49:29.687Z,19.65
2023-01-05T02:51:56.025Z,19.64
2023-01-05T02:54:30.469Z,19.64
2023-01-05T02:57:08.537Z,19.63
2023-01-05T02:59:36.163Z,19.62
2023-01-05T03:02:04.690Z,19.62
2023-01-05T03:04:35.822Z,19.63
2023-01-05T03:07:04.201Z,19.62
2023-01-05T03:09:36.630Z,19.62
2023-01-05T03:12:40.978Z,19.61
2023-01-05T03:15:09.182Z,19.61
2023-01-05T03:17:45.133Z,19.61
2023-01-05T03:20:13.558Z,19.61
2023-01-05T03:22:58.671Z,19.60
2023-01-05T03:25:43.777Z,19.60
2023-01-05T03:28:36.279Z,19.59
2023-01-05T03:31:27.081Z,19.60
2023-01-05T03:34:31.246Z,19.60
2023-01-05T03:37:08.384Z,19.59
2023-01-05T03:39:35.457Z,19.58
2023-01-05T03:42:04.536Z,19.60
2023-01-05T03:44:30.949Z,19.61
2023-01-05T03:46:57.907Z,19.63
2023-01-05T03:49:24.252Z,19.64
2023-01-05T03:51:51.030Z,19.64
2023-01-05T03:54:18.091Z,19.64
2023-01-05T04:00:46.811Z,19.70
2023-01-05T04:03:15.243Z,19.67
2023-01-05T04:05:42.554Z,19.72
2023-01-05T04:08:10.392Z,19.72
2023-01-05T04:10:36.717Z,19.75
2023-01-05T04:13:03.893Z,19.74
2023-01-05T04:15:30.874Z,19.75
2023-01-05T04:17:58.023Z,19.76
2023-01-05T04:20:24.854Z,19.77
2023-01-05T04:22:52.417Z,19.78
2023-01-05T04:25:20.810Z,19.77
2023-01-05T04:27:47.765Z,19.76
2023-01-05T04:30:15.010Z,19.75
2023-01-05T04:32:41.892Z,19.76
2023-01-05T04:35:12.513Z,19.75
2023-01-05T04:37:40.708Z,19.77
2023-01-05T04:40:08.354Z,19.76
2023-01-05T04:42:43.404Z,19.77
2023-01-05T04:45:10.366Z,19.78
2023-01-05T04:47:37.066Z,19.79
2023-01-05T04:50:04.195Z,19.80
2023-01-05T04:52:30.585Z,19.81
2023-01-05T04:54:57.085Z,19.81
2023-01-05T04:57:23.658Z,19.83
2023-01-05T04:59:51.774Z,19.83
2023-01-05T05:02:20.891Z,19.83
2023-01-05T05:04:49.547Z,19.83
2023-01-05T05:07:16.532Z,19.83
2023-01-05T05:09:42.900Z,19.82
2023-01-05T05:12:10.262Z,19.82
2023-01-05T05:14:38.128Z,19.82
2023-01-05T05:17:04.479Z,19.79
2023-01-05T05:19:30.912Z,19.76
2023-01-05T05:21:58.317Z,19.77
2023-01-05T05:24:26.068Z,19.75
2023-01-05T05:26:52.537Z,19.82
2023-01-05T05:29:18.868Z,19.83
2023-01-05T05:31:45.615Z,19.85
2023-01-05T05:34:11.965Z,19.85
2023-01-05T05:36:38.314Z,19.86
2023-01-05T05:39:04.676Z,19.85
2023-01-05T05:41:31.008Z,19.85
2023-01-05T05:44:00.814Z,19.86
2023-01-05T05:46:28.145Z,19.86
2023-01-05T05:48:54.996Z,19.85
2023-01-05T05:51:21.340Z,19.85
2023-01-05T05:53:47.669Z,19.86
2023-01-05T05:56:14.000Z,19.87
2023-01-05T05:58:40.326Z,19.90
2023-01-05T06:01:06.720Z,19.87
2023-01-05T06:03:33.123Z,19.93
2023-01-05T06:05:59.554Z,19.93
2023-01-05T06:08:27.117Z,20.05
2023-01-05T06:10:53.461Z,20.21
2023-01-05T06:13:19.785Z,20.27
2023-01-05T06:15:46.108Z,20.36
2023-01-05T06:18:12.445Z,20.36
2023-01-05T06:20:38.817Z,20.36
2023-01-05T06:23:05.150Z,20.40
2023-01-05T06:25:31.512Z,20.40
2023-01-05T06:27:57.909Z,20.42
2023-01-05T06:30:24.247Z,20.43
2023-01-05T06:32:50.563Z,20.46
2023-01-05T06:35:16.966Z,20.46
2023-01-05T06:37:43.324Z,20.50
2023-01-05T06:40:11.394Z,20.56
2023-01-05T06:42:38.111Z,20.63
2023-01-05T06:45:04.820Z,20.58
2023-01-05T06:47:31.161Z,20.85
2023-01-05T06:49:57.519Z,21.14
2023-01-05T06:52:23.896Z,21.26
2023-01-05T06:54:50.245Z,21.28
2023-01-05T06:57:16.595Z,21.31
2023-01-05T06:59:45.604Z,21.24
2023-01-05T07:02:15.163Z,20.95
2023-01-05T07:04:41.546Z,21.19
2023-01-05T07:07:08.865Z,21.12
2023-01-05T07:09:38.321Z,20.87
2023-01-05T07:12:10.647Z,20.70
2023-01-05T07:14:38.075Z,20.64
2023-01-05T07:17:05.154Z,20.61
2023-01-05T07:19:31.482Z,20.66
2023-01-05T07:21:58.040Z,20.76
2023-01-05T07:24:24.393Z,20.76
2023-01-05T07:26:50.765Z,20.76
2023-01-05T07:29:23.294Z,20.96
2023-01-05T07:31:52.342Z,20.87
2023-01-05T07:34:24.749Z,20.81
2023-01-05T07:36:53.811Z,20.80
2023-01-05T07:39:20.139Z,21.04
2023-01-05T07:41:46.469Z,21.00
2023-01-05T07:44:13.174Z,20.95
2023-01-05T07:46:42.104Z,21.02
2023-01-05T07:49:08.436Z,20.96
2023-01-05T07:51:35.691Z,21.01
2023-01-05T07:54:09.319Z,20.92
2023-01-05T07:56:35.701Z,20.63
2023-01-05T07:59:05.054Z,20.55
2023-01-05T08:01:31.518Z,20.68
2023-01-05T08:04:00.912Z,20.67
2023-01-05T08:06:27.369Z,20.65
2023-01-05T08:08:53.756Z,20.87
2023-01-05T08:11:21.850Z,20.78
2023-01-05T08:14:00.609Z,20.83
2023-01-05T08:16:27.451Z,20.88
2023-01-05T08:18:53.791Z,20.91
2023-01-05T08:21:20.115Z,20.78
2023-01-05T08:23:46.443Z,20.72
2023-01-05T08:26:13.538Z,20.68
2023-01-05T08:28:39.910Z,20.70
2023-01-05T08:31:15.777Z,20.77
2023-01-05T08:33:42.228Z,20.85
2023-01-05T08:36:09.308Z,20.97
2023-01-05T08:38:35.679Z,20.71
2023-01-05T08:41:02.004Z,20.53
2023-01-05T08:43:28.408Z,20.47
2023-01-05T08:45:57.719Z,20.49
2023-01-05T08:48:24.227Z,20.51
2023-01-05T08:50:51.051Z,20.53
2023-01-05T08:53:17.502Z,20.41
2023-01-05T08:55:43.819Z,20.38
2023-01-05T08:58:10.156Z,20.42
2023-01-05T09:00:36.514Z,20.45
2023-01-05T09:03:02.993Z,20.45
2023-01-05T09:05:29.515Z,20.47
2023-01-05T09:07:55.942Z,20.48
2023-01-05T09:10:22.324Z,20.47
2023-01-05T09:12:48.693Z,20.47
2023-01-05T09:15:15.039Z,20.47
2023-01-05T09:17:44.141Z,20.47
2023-01-05T09:20:10.490Z,20.46
2023-01-05T09:22:36.862Z,20.47
2023-01-05T09:25:03.580Z,20.48
2023-01-05T09:27:34.029Z,20.56
2023-01-05T09:30:00.456Z,20.66
2023-01-05T09:32:26.829Z,20.76
2023-01-05T09:34:53.155Z,20.90
2023-01-05T09:37:22.348Z,21.03
2023-01-05T09:39:48.699Z,21.01
2023-01-05T09:42:17.238Z,21.01
2023-01-05T09:44:47.646Z,20.97
2023-01-05T09:47:32.813Z,20.85
2023-01-05T09:50:00.176Z,20.87
2023-01-05T09:52:26.504Z,20.95
2023-01-05T09:54:52.869Z,20.98
2023-01-05T09:57:19.961Z,21.03
2023-01-05T09:59:47.070Z,21.06
2023-01-05T10:02:31.854Z,21.08
2023-01-05T10:04:58.300Z,21.10
2023-01-05T10:07:50.746Z,21.12
2023-01-05T10:10:30.075Z,21.12
2023-01-05T10:13:03.780Z,21.15
2023-01-05T10:15:41.564Z,21.16
2023-01-05T10:18:14.613Z,21.16
2023-01-05T10:20:51.820Z,21.15
2023-01-05T10:23:34.800Z,21.03
2023-01-05T10:26:04.689Z,20.88
2023-01-05T10:28:36.933Z,20.87
2023-01-05T10:31:39.789Z,20.88
2023-01-05T10:34:14.357Z,20.98
2023-01-05T10:37:07.811Z,21.04
2023-01-05T10:39:56.518Z,20.99
2023-01-05T10:42:37.739Z,21.04
2023-01-05T10:45:04.833Z,21.07
2023-01-05T10:47:32.695Z,21.17
2023-01-05T10:49:59.246Z,21.20
2023-01-05T10:52:25.938Z,21.22
2023-01-05T10:54:53.770Z,21.19
2023-01-05T10:57:34.507Z,21.22
2023-01-05T11:00:01.957Z,21.08
2023-01-05T11:02:28.828Z,21.01
2023-01-05T11:04:55.888Z,21.11
2023-01-05T11:07:22.232Z,21.18
2023-01-05T11:09:51.298Z,21.11
2023-01-05T11:12:18.619Z,21.06
2023-01-05T11:14:47.229Z,20.79
2023-01-05T11:17:16.768Z,20.88
2023-01-05T11:19:47.263Z,20.84
2023-01-05T11:22:32.046Z,20.95
2023-01-05T11:25:12.619Z,20.91
2023-01-05T11:27:39.120Z,20.99
2023-01-05T11:30:14.846Z,21.14
2023-01-05T11:32:44.216Z,21.19
2023-01-05T11:35:29.625Z,21.22
2023-01-05T11:37:57.214Z,21.20
2023-01-05T11:40:23.862Z,21.09
2023-01-05T11:42:50.199Z,21.15
2023-01-05T11:45:17.660Z,21.20
2023-01-05T11:47:44.961Z,21.25
2023-01-05T11:50:14.210Z,21.30
2023-01-05T11:52:44.140Z,21.33
2023-01-05T11:55:19.566Z,21.30
2023-01-05T11:57:52.695Z,21.29
2023-01-05T12:00:25.506Z,21.32
2023-01-05T12:03:10.470Z,21.40
2023-01-05T12:06:09.274Z,21.38
2023-01-05T12:08:43.440Z,21.43
2023-01-05T12:11:15.774Z,21.44
2023-01-05T12:14:05.467Z,21.43
2023-01-05T12:16:31.765Z,21.41
2023-01-05T12:19:22.563Z,21.45
2023-01-05T12:22:02.904Z,21.50
2023-01-05T12:24:50.801Z,21.53
2023-01-05T12:27:23.120Z,21.42
2023-01-05T12:35:44.493Z,21.53
2023-01-05T12:38:29.532Z,21.42
2023-01-05T12:40:58.877Z,21.43
2023-01-05T12:43:43.741Z,21.50
2023-01-05T12:46:18.835Z,21.45
2023-01-05T12:48:50.790Z,21.43
2023-01-05T12:51:24.641Z,21.45
2023-01-05T12:53:55.002Z,21.52
2023-01-05T12:56:23.352Z,21.54
2023-01-05T12:58:54.316Z,21.56
2023-01-05T13:01:22.346Z,21.49
2023-01-05T13:03:49.809Z,21.51
2023-01-05T13:06:20.208Z,21.47
2023-01-05T13:08:59.190Z,21.51
2023-01-05T13:11:27.782Z,21.49
2023-01-05T13:13:54.909Z,21.53
2023-01-05T13:16:28.883Z,21.34
2023-01-05T13:18:59.839Z,21.23
2023-01-05T13:21:26.751Z,21.20
2023-01-05T13:23:54.087Z,21.29
2023-01-05T13:26:21.950Z,21.33
2023-01-05T13:28:48.624Z,21.36
2023-01-05T13:31:34.104Z,21.34
2023-01-05T13:34:22.156Z,21.36
2023-01-05T13:37:08.729Z,21.45
2023-01-05T13:39:34.975Z,21.53
2023-01-05T13:42:17.211Z,21.50
2023-01-05T13:45:04.644Z,21.54
2023-01-05T13:47:45.299Z,21.55
2023-01-05T13:50:23.394Z,21.50
2023-01-05T13:52:53.733Z,21.53
2023-01-05T13:55:25.871Z,21.42
2023-01-05T13:57:54.118Z,21.31
2023-01-05T14:00:31.157Z,21.24
2023-01-05T14:02:59.298Z,21.22
2023-01-05T14:05:30.370Z,21.23
2023-01-05T14:07:56.984Z,21.22
2023-01-05T14:10:27.356Z,21.20
2023-01-05T14:12:56.684Z,21.19
2023-01-05T14:15:39.553Z,21.20
2023-01-05T14:18:06.665Z,21.20
2023-01-05T14:20:46.839Z,21.20
2023-01-05T14:23:39.478Z,21.36
2023-01-05T14:26:06.768Z,21.44
2023-01-05T14:28:33.692Z,21.48
2023-01-05T14:31:18.223Z,21.47
2023-01-05T14:34:00.844Z,21.54
2023-01-05T14:36:39.293Z,21.50
2023-01-05T14:39:09.756Z,21.60
2023-01-05T14:41:36.082Z,21.60
2023-01-05T14:44:06.872Z,21.53
2023-01-05T14:46:46.770Z,21.57
2023-01-05T14:49:27.426Z,21.59
2023-01-05T14:51:54.549Z,21.58
2023-01-05T14:54:37.061Z,21.63
2023-01-05T14:57:20.587Z,21.64
2023-01-05T14:59:46.934Z,21.63
2023-01-05T15:02:17.795Z,21.71
2023-01-05T15:04:44.183Z,21.73
2023-01-05T15:07:20.163Z,21.74
2023-01-05T15:10:01.188Z,21.82
2023-01-05T15:12:46.055Z,21.88
2023-01-05T15:15:29.008Z,21.84
2023-01-05T15:17:58.351Z,21.78
2023-01-05T15:20:49.016Z,21.82
2023-01-05T15:23:22.651Z,21.88
2023-01-05T15:26:10.541Z,21.75
2023-01-05T15:28:55.762Z,21.76
2023-01-05T15:31:40.922Z,21.78
2023-01-05T15:34:25.945Z,21.69
2023-01-05T15:37:01.310Z,21.71
2023-01-05T15:39:31.292Z,21.71
2023-01-05T15:42:01.384Z,21.53
2023-01-05T15:44:31.120Z,21.53
2023-01-05T15:46:57.468Z,21.42
2023-01-05T15:49:24.589Z,21.51
2023-01-05T15:51:51.984Z,21.57
2023-01-05T15:54:22.009Z,21.53
2023-01-05T15:56:48.330Z,18.32
2023-01-05T15:59:19.726Z,19.19
2023-01-05T16:01:55.123Z,20.55
2023-01-05T16:04:24.418Z,20.97
2023-01-05T16:06:52.841Z,21.08
2023-01-05T16:09:24.273Z,21.16
2023-01-05T16:11:51.187Z,21.18
2023-01-05T16:14:21.704Z,21.22
2023-01-05T16:16:53.351Z,21.25
2023-01-05T16:19:24.474Z,21.27
2023-01-05T16:22:10.096Z,21.24
2023-01-05T16:24:53.833Z,21.46
2023-01-05T16:27:23.122Z,21.67
2023-01-05T16:29:52.180Z,21.71
2023-01-05T16:32:37.712Z,21.42
2023-01-05T16:35:39.240Z,21.42
2023-01-05T16:38:10.787Z,21.51
2023-01-05T16:40:41.436Z,21.48
2023-01-05T16:43:17.128Z,21.64
2023-01-05T16:45:43.535Z,21.68
2023-01-05T16:48:35.681Z,21.73
2023-01-05T16:51:06.619Z,21.74
2023-01-05T16:53:33.322Z,21.76
2023-01-05T16:56:00.831Z,21.89
2023-01-05T16:58:30.354Z,21.72
2023-01-05T17:01:08.875Z,21.72
2023-01-05T17:03:35.258Z,21.81
2023-01-05T17:06:01.599Z,21.73
2023-01-05T17:08:33.082Z,21.75
2023-01-05T17:10:59.419Z,21.79
2023-01-05T17:13:26.943Z,21.73
2023-01-05T17:15:53.355Z,21.71
2023-01-05T17:18:24.073Z,21.56
2023-01-05T17:20:53.714Z,21.57
2023-01-05T17:23:27.898Z,21.52
2023-01-05T17:25:55.002Z,21.56
2023-01-05T17:28:23.623Z,21.60
2023-01-05T17:30:50.247Z,21.64
2023-01-05T17:33:25.345Z,21.68
2023-01-05T17:35:54.405Z,21.73
2023-01-05T17:38:20.747Z,21.67
2023-01-05T17:40:47.294Z,21.52
2023-01-05T17:43:13.657Z,21.50
2023-01-05T17:45:43.951Z,21.54
2023-01-05T17:50:41.985Z,21.53
2023-01-05T17:53:11.281Z,21.70
2023-01-05T17:55:37.669Z,21.87
2023-01-05T17:58:04.036Z,21.89
2023-01-05T18:00:33.157Z,21.92
2023-01-05T18:02:59.552Z,21.98
2023-01-05T18:05:25.935Z,22.06
2023-01-05T18:07:52.366Z,22.11
2023-01-05T18:10:22.484Z,22.13
2023-01-05T18:12:48.846Z,22.15
2023-01-05T18:15:18.567Z,22.05
2023-01-05T18:17:44.900Z,21.73
2023-01-05T18:20:12.556Z,21.69
2023-01-05T18:22:38.927Z,21.71
2023-01-05T18:27:35.428Z,21.75
2023-01-05T18:30:04.952Z,21.62
2023-01-05T18:35:09.817Z,21.41
2023-01-05T18:37:36.870Z,21.40
2023-01-05T18:40:03.475Z,21.48
2023-01-05T18:42:29.864Z,21.57
2023-01-05T18:44:56.208Z,21.53
2023-01-05T18:47:22.560Z,21.45
2023-01-05T18:49:48.875Z,21.40
2023-01-05T18:52:15.204Z,21.34
2023-01-05T18:54:41.635Z,21.43
2023-01-05T18:57:08.535Z,21.41
2023-01-05T18:59:47.162Z,21.37
2023-01-05T19:02:13.914Z,21.14
2023-01-05T19:04:43.176Z,20.98
2023-01-05T19:07:09.570Z,20.94
2023-01-05T19:09:36.090Z,20.98
2023-01-05T19:12:02.480Z,20.95
2023-01-05T19:14:28.847Z,20.95
2023-01-05T19:16:55.420Z,20.96
2023-01-05T19:19:25.034Z,21.01
2023-01-05T19:21:52.254Z,20.93
2023-01-05T19:24:22.227Z,19.85
2023-01-05T19:26:49.404Z,19.53
2023-01-05T19:29:18.620Z,19.24
2023-01-05T19:31:45.278Z,19.42
2023-01-05T19:34:13.771Z,19.37
2023-01-05T19:36:41.612Z,20.01
2023-01-05T19:39:10.166Z,20.18
2023-01-05T19:41:37.175Z,20.43
2023-01-05T19:44:03.651Z,20.65
2023-01-05T19:46:30.143Z,20.75
2023-01-05T19:48:56.599Z,20.78
2023-01-05T19:51:23.773Z,20.77
2023-01-05T19:54:10.161Z,20.67
2023-01-05T19:56:36.522Z,20.76
2023-01-05T19:59:03.785Z,20.71
2023-01-05T20:01:30.698Z,20.59
2023-01-05T20:03:57.131Z,20.72
2023-01-05T20:06:26.895Z,20.73
2023-01-05T20:08:53.600Z,20.76
2023-01-05T20:11:35.903Z,20.77
2023-01-05T20:14:15.081Z,20.80
2023-01-05T20:16:41.939Z,20.80
2023-01-05T20:19:08.286Z,20.82
2023-01-05T20:21:34.635Z,20.83
2023-01-05T20:24:01.320Z,20.80
2023-01-05T20:26:28.239Z,20.79
2023-01-05T20:28:59.512Z,20.78
2023-01-05T20:31:26.953Z,20.78
2023-01-05T20:33:53.592Z,20.78
2023-01-05T20:36:20.235Z,20.78
2023-01-05T20:38:46.603Z,20.80
2023-01-05T20:41:22.864Z,20.82
2023-01-05T20:43:49.353Z,20.79
2023-01-05T20:50:15.545Z,20.74
2023-01-05T20:52:50.112Z,20.73
2023-01-05T20:55:18.762Z,20.72
2023-01-05T20:57:48.244Z,20.71
2023-01-05T21:00:19.188Z,20.72
2023-01-05T21:02:47.406Z,20.70
2023-01-05T21:05:15.100Z,20.69
2023-01-05T21:07:44.206Z,20.68
2023-01-05T21:10:10.565Z,20.66
2023-01-05T21:12:36.921Z,20.66
2023-01-05T21:15:03.274Z,20.65
2023-01-05T21:17:29.625Z,20.65
2023-01-05T21:19:56.402Z,20.63
2023-01-05T21:22:22.746Z,20.64
2023-01-05T21:24:49.075Z,20.63
2023-01-05T21:27:15.505Z,20.65
2023-01-05T21:29:48.119Z,20.65
2023-01-05T21:32:14.529Z,20.66
2023-01-05T21:34:40.848Z,20.67
2023-01-05T21:37:07.164Z,20.68
2023-01-05T21:39:33.563Z,20.67
2023-01-05T21:42:18.362Z,20.66
2023-01-05T21:44:44.693Z,20.65
2023-01-05T21:47:13.972Z,20.67
2023-01-05T21:49:43.329Z,20.65
2023-01-05T21:52:29.033Z,20.64
2023-01-05T21:55:17.001Z,20.62
2023-01-05T21:57:43.329Z,20.61
2023-01-05T22:00:09.963Z,20.60
2023-01-05T22:02:39.145Z,20.60
2023-01-05T22:05:05.918Z,20.59
2023-01-05T22:07:32.292Z,20.59
2023-01-05T22:09:58.635Z,20.58
2023-01-05T22:12:24.967Z,20.56
2023-01-05T22:14:51.309Z,20.56
2023-01-05T22:17:17.657Z,20.53
2023-01-05T22:19:44.017Z,20.51
2023-01-05T22:22:10.353Z,20.53
2023-01-05T22:24:36.758Z,20.50
2023-01-05T22:27:06.012Z,20.50
2023-01-05T22:29:32.545Z,20.47
2023-01-05T22:32:01.725Z,20.52
2023-01-05T22:34:28.999Z,20.56
2023-01-05T22:36:55.386Z,20.53
2023-01-05T22:39:21.880Z,20.52
2023-01-05T22:41:48.701Z,20.50
2023-01-05T22:44:15.015Z,20.50
2023-01-05T22:46:41.386Z,20.47
2023-01-05T22:49:07.779Z,20.46
2023-01-05T22:51:35.230Z,20.45
2023-01-05T22:54:08.064Z,20.43
2023-01-05T22:56:40.024Z,20.38
2023-01-05T22:59:06.365Z,20.41
2023-01-05T23:01:34.128Z,20.40
2023-01-05T23:04:00.821Z,20.40
2023-01-05T23:06:27.165Z,20.38
2023-01-05T23:08:53.721Z,20.38
2023-01-05T23:11:20.813Z,20.38
2023-01-05T23:13:47.171Z,20.37
2023-01-05T23:16:13.602Z,20.35
2023-01-05T23:18:39.979Z,20.34
2023-01-05T23:21:07.338Z,20.33
2023-01-05T23:23:33.725Z,20.32
2023-01-05T23:26:00.072Z,20.30
2023-01-05T23:28:26.716Z,20.29
2023-01-05T23:30:53.817Z,20.29
2023-01-05T23:33:20.415Z,20.28
2023-01-05T23:35:46.916Z,20.26
2023-01-05T23:38:13.334Z,20.26
2023-01-05T23:40:43.168Z,20.25
2023-01-05T23:43:12.693Z,20.24
2023-01-05T23:45:40.154Z,20.24
2023-01-05T23:48:07.952Z,20.24
2023-01-05T23:50:34.276Z,20.23
2023-01-05T23:53:00.622Z,20.23
2023-01-05T23:55:26.985Z,20.26
2023-01-05T23:57:53.318Z,20.27
